Auburn, ME

9:46 PM EDT on April 27, 2015 (GMT -0400)
Augusta State | | Change Station
CLOSE
Current Station
Airport
Location: Augusta,
Elevation: 351 ft
Nearby Weather Stations

Elev 351 ft 44.32 °N, 69.80 °W | Updated 53 minutes ago

Overcast
Overcast
46 °F
Feels Like 39 °F
N
18
Wind Variable Wind from North
Gusts 26 mph

Today
High -- | Low -- °F
--% Chance of Precip.
Yesterday
High -- | Low -- °F
Precip. -- in
5:38 AM 7:39 PM
Waxing Gibbous, 69% visible
Pressure 29.61 in
Visibility 10.0 miles
Clouds Scattered Clouds 4300 ft
Mostly Cloudy 6000 ft
Overcast 9000 ft
Windchill 39 °F
Dew Point 39 °F
Humidity 76%
Rainfall 0.09 in
Snow Depth Not available.
UV 0 out of 12
Pollen 7.80 out of 12
Air Quality Not available.
Flu Activity Regional
METAR KAUG 280053Z AUTO 01016G23KT 10SM SCT043 BKN060 OVC090 08/04 A2960 RMK AO2 SLP025 T00780039

More Conditions Fewer Conditions

Pressure 29.61 in
Visibility 10.0 miles
Clouds Scattered Clouds 4300 ft
Mostly Cloudy 6000 ft
Overcast 9000 ft
Windchill 39 °F
Dew Point 39 °F
Humidity 76%
Rainfall 0.09 in
Snow Depth Not available.
UV 0 out of 12
Pollen 7.80 out of 12
Air Quality Not available.
Flu Activity Regional
METAR KAUG 280053Z AUTO 01016G23KT 10SM SCT043 BKN060 OVC090 08/04 A2960 RMK AO2 SLP025 T00780039

More Conditions Fewer Conditions

10-Day Weather Forecast

Almanac

Astronomy

Apr. 27, 2015 Rise Set
Actual Time
Civil Twilight
Nautical Twilight
Astronomical Twilight
Moon
Length of Visible Light
Length of Day
Tomorrow will be .
, % of the Moon is Illuminated

Today's Extremes

State Highs State Lows

Community

WunderPhotos

Upload Photos

1,817,508 photos uploaded!

WunderBlogs® & News

Nearby

Air Quality

  Air Quality AQ Index Pollutant
Not available.

Snow Depth

Station Depth Elevation

Earthquake Activity

City Distance Mag. Time & Date
Minimum magnitude displayed is 2.5.

Coastal Water Temperatures

Place Temperature

Stations

Nearby Weather Stations

Station Location Temp. Windchill Dew Point Humidity Wind Precip. Elev Updated Type